Time;durP1;ratioP1;P1;durP2;ratioP2;P2;SDS_P1;SDS_P2;PMS_P1;PMS_P2;Temp;Humidity;BMP_temperature;BMP_pressure;BME280_temperature;BME280_humidity;BME280_pressure;Samples;Min_cycle;Max_cycle;Signal;HPM_P1;HPM_P2
2022/11/19 00:01:11;;;;;;;6.25;3.70;;;4.90;99.90;;;3.85;100.00;100826.66;4251408;27;20072;-78
2022/11/19 00:03:19;;;;;;;8.18;3.53;;;4.90;99.90;;;3.93;100.00;100836.56;4233780;28;20024;-78
2022/11/19 00:05:19;;;;;;;10.30;3.90;;;4.90;99.90;;;3.90;100.00;100839.38;4218370;28;20031;-78
2022/11/19 00:07:20;;;;;;;8.77;3.78;;;4.80;99.90;;;3.90;100.00;100837.63;4251049;28;20398;-79
2022/11/19 00:09:21;;;;;;;6.40;3.28;;;4.80;99.90;;;3.83;100.00;100836.38;4217391;28;20017;-78
2022/11/19 00:14:00;;;;;;;9.65;4.30;;;4.80;99.90;;;3.88;100.00;100846.50;4184377;28;20190;-78
2022/11/19 00:16:18;;;;;;;9.82;3.95;;;4.80;99.90;;;3.89;100.00;100849.00;4217378;28;20024;-79
2022/11/19 00:18:19;;;;;;;6.97;3.47;;;4.80;99.90;;;3.94;100.00;100853.91;4249797;28;20026;-78
2022/11/19 00:20:20;;;;;;;9.57;4.10;;;4.80;99.90;;;3.90;100.00;100847.22;4216882;28;20037;-78
2022/11/19 00:22:21;;;;;;;9.38;3.92;;;4.90;99.90;;;4.02;100.00;100853.31;4233903;28;20031;-78
2022/11/19 00:24:22;;;;;;;11.85;4.25;;;4.90;99.90;;;4.01;100.00;100862.09;4218322;28;20051;-79
2022/11/19 00:26:23;;;;;;;8.80;3.97;;;4.90;99.90;;;4.00;100.00;100852.63;4250848;28;20123;-78
2022/11/19 00:28:24;;;;;;;9.65;4.18;;;4.90;99.90;;;3.98;100.00;100847.47;4218362;28;20031;-79
2022/11/19 00:30:25;;;;;;;10.32;4.50;;;4.90;99.90;;;4.00;100.00;100853.44;4251039;28;20023;-78
2022/11/19 00:32:26;;;;;;;12.50;4.38;;;4.90;99.90;;;3.97;100.00;100848.44;4250742;28;20028;-78
2022/11/19 00:34:27;;;;;;;11.20;4.32;;;4.90;99.90;;;3.98;100.00;100847.47;4216831;28;20032;-78
2022/11/19 00:36:28;;;;;;;6.97;4.05;;;4.90;99.90;;;4.05;100.00;100855.72;4233836;28;20418;-79
2022/11/19 00:38:30;;;;;;;8.77;4.38;;;4.90;99.90;;;4.01;100.00;100854.25;4218294;28;20028;-78
2022/11/19 00:40:30;;;;;;;7.72;3.90;;;5.00;99.90;;;4.03;100.00;100860.22;4250922;28;20094;-78
2022/11/19 00:42:31;;;;;;;8.10;3.70;;;4.90;99.90;;;4.03;100.00;100855.00;4218203;28;20105;-78
2022/11/19 00:44:32;;;;;;;10.52;5.03;;;4.90;99.90;;;3.98;100.00;100852.72;4219437;28;20075;-78
2022/11/19 00:46:33;;;;;;;12.73;4.80;;;4.90;99.90;;;4.02;100.00;100858.53;4254185;27;20031;-78
2022/11/19 00:48:34;;;;;;;6.70;3.95;;;4.90;99.90;;;4.04;100.00;100862.69;4219940;28;20070;-78
2022/11/19 00:50:35;;;;;;;9.35;4.07;;;4.90;99.90;;;3.98;100.00;100860.53;4221275;28;20035;-79
2022/11/19 00:52:36;;;;;;;6.53;4.20;;;4.90;99.90;;;4.01;100.00;100862.94;4221299;28;20028;-78
2022/11/19 00:54:37;;;;;;;7.78;3.90;;;4.90;99.90;;;4.12;100.00;100859.56;4220578;28;20073;-78
2022/11/19 00:56:38;;;;;;;7.60;3.85;;;4.90;99.90;;;4.05;100.00;100853.94;4221488;28;20081;-79
2022/11/19 00:58:40;;;;;;;7.82;4.32;;;5.00;99.90;;;4.08;100.00;100853.72;4253930;27;20128;-78
2022/11/19 01:00:40;;;;;;;7.25;4.45;;;5.00;99.90;;;4.09;100.00;100860.56;4236642;28;20027;-79
2022/11/19 01:02:41;;;;;;;12.52;3.92;;;5.00;99.90;;;4.10;100.00;100864.03;4220999;28;20400;-79
2022/11/19 01:04:42;;;;;;;6.47;3.67;;;5.00;99.90;;;4.11;100.00;100868.31;4253919;27;20039;-78
2022/11/19 01:06:44;;;;;;;10.02;4.25;;;5.00;99.90;;;4.08;100.00;100861.53;4221085;28;20028;-79
2022/11/19 01:08:46;;;;;;;9.35;3.50;;;5.00;99.90;;;4.08;100.00;100869.38;4220933;28;20032;-79
2022/11/19 01:10:47;;;;;;;8.95;4.35;;;5.00;99.90;;;4.11;100.00;100863.94;4219884;28;20031;-79
2022/11/19 01:15:08;;;;;;;10.25;4.38;;;5.00;99.90;;;4.06;100.00;100868.63;4248974;27;20027;-79
2022/11/19 01:17:09;;;;;;;10.25;5.65;;;5.00;99.90;;;4.20;100.00;100872.88;4253771;27;20028;-79
2022/11/19 01:19:11;;;;;;;9.02;3.95;;;5.00;99.90;;;4.15;100.00;100883.63;4219774;28;20047;-79
2022/11/19 01:21:12;;;;;;;6.78;3.92;;;5.10;99.90;;;4.11;100.00;100876.97;4236263;28;20123;-79
2022/11/19 01:23:13;;;;;;;9.10;3.63;;;5.10;99.90;;;4.12;100.00;100870.81;4236320;28;20016;-78
2022/11/19 01:25:14;;;;;;;7.10;3.65;;;5.10;99.90;;;4.11;100.00;100879.59;4254019;27;20393;-79
2022/11/19 01:27:15;;;;;;;7.35;4.20;;;5.00;99.90;;;4.06;100.00;100873.84;4219593;28;20028;-79
2022/11/19 01:29:16;;;;;;;7.25;3.70;;;5.00;99.90;;;4.07;100.00;100882.53;4220847;28;20024;-79
2022/11/19 01:31:21;;;;;;;6.80;3.65;;;5.00;99.90;;;4.09;100.00;100883.25;4236082;28;20027;-79
2022/11/19 01:33:22;;;;;;;5.80;4.10;;;5.00;99.90;;;4.07;100.00;100875.53;4219444;28;20106;-79
2022/11/19 01:35:24;;;;;;;7.75;4.05;;;5.00;99.90;;;4.09;100.00;100880.66;4253400;27;20027;-79
2022/11/19 01:37:25;;;;;;;6.57;3.75;;;5.00;99.90;;;4.04;100.00;100875.75;4220661;28;20440;-79
2022/11/19 01:39:26;;;;;;;6.30;3.83;;;5.00;99.90;;;4.08;100.00;100885.03;4220481;28;20036;-79
2022/11/19 01:41:31;;;;;;;7.80;3.72;;;5.00;99.90;;;4.03;100.00;100881.09;4220650;28;20368;-79
2022/11/19 01:43:49;;;;;;;7.03;3.88;;;5.00;99.90;;;4.04;100.00;100898.41;4220170;28;20084;-79
2022/11/19 01:45:53;;;;;;;9.00;4.10;;;5.00;99.90;;;4.01;100.00;100901.22;4219228;28;20518;-78
2022/11/19 01:48:06;;;;;;;9.50;4.03;;;5.00;99.90;;;4.03;100.00;100897.59;4252603;27;20096;-78
2022/11/19 01:50:07;;;;;;;9.50;3.63;;;5.00;99.90;;;4.02;100.00;100903.75;4234903;28;20080;-78
2022/11/19 01:52:08;;;;;;;9.10;3.83;;;5.00;99.90;;;4.05;100.00;100900.91;4253014;27;20023;-79
2022/11/19 01:54:25;;;;;;;6.95;4.40;;;5.00;99.90;;;4.00;100.00;100903.03;4219029;28;20108;-79
2022/11/19 01:56:27;;;;;;;7.13;3.38;;;5.00;99.90;;;4.01;100.00;100915.13;4220439;28;20035;-79
2022/11/19 01:58:29;;;;;;;8.35;3.47;;;5.00;99.90;;;4.02;100.00;100922.03;4253008;27;20098;-78
2022/11/19 02:00:30;;;;;;;8.85;3.83;;;4.90;99.90;;;3.97;100.00;100918.91;4235508;28;20077;-78
2022/11/19 02:02:32;;;;;;;6.75;3.90;;;4.90;99.90;;;3.99;100.00;100927.47;4253048;27;20023;-79
2022/11/19 02:04:35;;;;;;;6.75;3.88;;;5.00;99.90;;;3.94;100.00;100916.53;4252947;27;20115;-78
2022/11/19 02:06:36;;;;;;;8.48;3.30;;;4.90;99.90;;;3.97;100.00;100929.34;4235725;28;20116;-78
2022/11/19 02:08:42;;;;;;;7.47;4.00;;;4.90;99.90;;;3.97;100.00;100918.91;4235522;28;20126;-79
2022/11/19 02:11:06;;;;;;;6.80;4.50;;;4.90;99.90;;;4.11;100.00;100923.97;4220260;28;20506;-79
2022/11/19 02:13:18;;;;;;;9.95;4.35;;;5.00;99.90;;;4.09;100.00;100923.22;4250938;27;20054;-78
2022/11/19 02:15:45;;;;;;;9.02;4.38;;;5.10;99.90;;;4.05;100.00;100918.34;4252426;27;20118;-79
2022/11/19 02:18:34;;;;;;;9.15;4.55;;;5.00;99.90;;;4.04;100.00;100927.94;4233543;28;20031;-79
2022/11/19 02:20:41;;;;;;;7.93;3.80;;;5.00;99.90;;;3.99;100.00;100922.25;4177312;28;20089;-79
2022/11/19 02:23:28;;;;;;;10.30;4.72;;;5.00;99.90;;;4.05;100.00;100927.03;4168368;28;20045;-79
2022/11/19 02:25:38;;;;;;;9.77;5.30;;;5.00;99.90;;;4.12;100.00;100928.22;4187383;28;20033;-79
2022/11/19 02:28:03;;;;;;;14.40;4.70;;;5.00;99.90;;;4.04;100.00;100940.16;4219835;28;20082;-79
2022/11/19 02:30:17;;;;;;;11.27;4.25;;;5.00;99.90;;;4.08;100.00;100926.81;4218456;28;20054;-79
2022/11/19 02:32:54;;;;;;;7.35;3.53;;;5.00;99.90;;;4.05;100.00;100932.25;4251388;27;20031;-79
2022/11/19 02:35:29;;;;;;;8.65;3.63;;;5.00;99.90;;;3.98;100.00;100938.84;4217122;28;20032;-79
2022/11/19 02:37:37;;;;;;;8.90;3.95;;;5.00;99.90;;;3.99;100.00;100942.28;4247810;27;20641;-79
2022/11/19 02:39:53;;;;;;;4.95;3.55;;;5.00;99.90;;;3.90;100.00;100933.34;4219649;28;20411;-79
2022/11/19 02:42:07;;;;;;;6.65;3.63;;;4.90;99.90;;;3.95;100.00;100939.06;4251998;27;20035;-79
2022/11/19 02:46:54;;;;;;;8.57;3.65;;;4.90;99.90;;;3.89;100.00;100935.09;4219642;28;20407;-79
2022/11/19 02:48:55;;;;;;;6.53;3.78;;;4.90;99.90;;;3.86;100.00;100939.69;4251762;27;20529;-79
2022/11/19 02:51:01;;;;;;;6.22;3.55;;;4.90;99.90;;;3.90;100.00;100949.00;4252022;27;20035;-78
2022/11/19 02:53:04;;;;;;;8.98;4.00;;;4.80;99.90;;;3.85;100.00;100938.06;4251872;27;20019;-79
2022/11/19 02:55:05;;;;;;;6.55;3.83;;;4.80;99.90;;;3.95;100.00;100946.03;4234935;28;20031;-79
2022/11/19 02:57:09;;;;;;;7.88;3.90;;;4.90;99.90;;;4.01;100.00;100956.88;4219302;28;20027;-79
2022/11/19 03:06:23;;;;;;;11.68;3.90;;;5.00;99.90;;;4.05;100.00;100944.47;4246486;27;20023;-79
2022/11/19 03:08:25;;;;;;;8.10;3.47;;;5.00;99.90;;;4.05;100.00;100947.91;4251055;27;20024;-79
2022/11/19 03:10:35;;;;;;;6.57;3.70;;;5.00;99.90;;;4.00;100.00;100943.97;4251698;27;20027;-79
2022/11/19 03:12:48;;;;;;;6.25;3.10;;;5.00;99.90;;;3.98;100.00;100949.28;4218091;28;20096;-78
2022/11/19 03:18:28;;;;;;;7.28;3.30;;;5.00;99.90;;;3.95;100.00;100957.31;4218063;28;20035;-79
2022/11/19 03:20:38;;;;;;;7.80;3.28;;;5.00;99.90;;;3.91;100.00;100966.31;4206985;28;20076;-79
2022/11/19 03:22:54;;;;;;;7.68;3.42;;;4.90;99.90;;;3.81;100.00;100953.09;4251277;27;20405;-78
2022/11/19 03:25:06;;;;;;;8.35;3.58;;;4.90;99.90;;;3.79;100.00;100961.97;4234199;28;20024;-78
2022/11/19 03:27:25;;;;;;;7.00;3.80;;;4.80;99.90;;;3.75;100.00;100952.69;4217631;28;20113;-78
2022/11/19 03:29:29;;;;;;;5.95;3.20;;;4.80;99.90;;;3.74;100.00;100948.38;4251218;27;20038;-79
2022/11/19 03:31:31;;;;;;;;;;;4.70;99.90;;;3.69;100.00;100950.50;4234366;28;20031;-79
2022/11/19 03:33:44;;;;;;;8.63;3.42;;;4.70;99.90;;;3.72;100.00;100950.28;4251390;27;19911;-79
2022/11/19 03:36:02;;;;;;;5.95;3.50;;;4.70;99.90;;;3.67;100.00;100952.38;4251061;27;20080;-79
2022/11/19 03:38:10;;;;;;;6.93;3.40;;;4.60;99.90;;;3.65;100.00;100955.09;4251059;27;20035;-79
2022/11/19 03:40:14;;;;;;;12.25;3.28;;;4.60;99.90;;;3.63;100.00;100961.34;4233589;28;20058;-79
2022/11/19 03:42:18;;;;;;;8.18;3.45;;;4.60;99.90;;;3.62;100.00;100954.47;4251525;27;20394;-79
2022/11/19 03:44:34;;;;;;;;;;;4.60;99.90;;;3.62;100.00;100964.88;4234372;28;20505;-79
2022/11/19 03:46:37;;;;;;;8.32;3.22;;;4.60;99.90;;;3.62;100.00;100954.47;4217114;28;19908;-79
2022/11/19 03:48:41;;;;;;;6.32;3.22;;;4.60;99.90;;;3.57;100.00;100956.56;4217280;28;20043;-79
2022/11/19 03:51:14;;;;;;;5.15;3.63;;;4.60;99.90;;;3.56;100.00;100960.94;4233857;28;20417;-79
2022/11/19 03:53:17;;;;;;;5.97;3.20;;;4.50;99.90;;;3.53;100.00;100947.28;4231645;28;20027;-79
2022/11/19 03:55:19;;;;;;;10.77;3.35;;;4.50;99.90;;;3.56;100.00;100955.72;4251470;27;20382;-79
2022/11/19 03:57:23;;;;;;;9.68;2.83;;;4.50;99.90;;;3.61;100.00;100965.84;4250964;27;20038;-79
2022/11/19 03:59:26;;;;;;;7.20;3.47;;;4.50;99.90;;;3.54;100.00;100967.19;4251225;27;20012;-79
2022/11/19 04:01:27;;;;;;;7.60;2.85;;;4.50;99.90;;;3.60;100.00;100972.00;4251235;27;20031;-79
2022/11/19 04:03:28;;;;;;;6.20;3.30;;;4.50;99.90;;;3.58;100.00;100971.28;4250994;27;20494;-79
2022/11/19 04:05:29;;;;;;;6.72;3.10;;;4.50;99.90;;;3.55;100.00;100964.50;4218347;28;20077;-79
2022/11/19 04:07:30;;;;;;;5.80;3.30;;;4.50;99.90;;;3.54;100.00;100977.63;4251400;28;20027;-79
2022/11/19 04:09:31;;;;;;;11.02;3.90;;;4.50;99.90;;;3.53;100.00;100976.78;4217315;28;20028;-79
2022/11/19 04:11:31;;;;;;;8.02;3.42;;;4.50;99.90;;;3.52;100.00;100958.66;4218370;28;20437;-79
2022/11/19 04:13:32;;;;;;;5.75;2.78;;;4.50;99.90;;;3.54;100.00;100967.19;4250958;28;20525;-79
2022/11/19 04:15:33;;;;;;;5.05;2.92;;;4.50;99.90;;;3.50;100.00;100971.78;4216812;28;20024;-79
2022/11/19 04:17:34;;;;;;;9.32;3.30;;;4.50;99.90;;;3.50;100.00;100970.94;4250990;27;20023;-79
2022/11/19 04:19:35;;;;;;;7.65;3.63;;;4.50;99.90;;;3.52;100.00;100982.13;4218756;28;20024;-79
2022/11/19 04:21:35;;;;;;;8.55;2.92;;;4.40;99.90;;;3.55;100.00;100984.53;4221690;28;20024;-79
2022/11/19 04:23:36;;;;;;;10.13;3.92;;;4.50;99.90;;;3.54;100.00;100985.47;4220592;28;20062;-79
2022/11/19 04:25:39;;;;;;;13.55;3.78;;;4.50;99.90;;;3.53;100.00;100982.00;4221797;28;20058;-79
2022/11/19 04:27:40;;;;;;;8.25;2.97;;;4.50;99.90;;;3.55;100.00;100976.72;4221678;28;20028;-79
2022/11/19 04:29:40;;;;;;;10.98;3.05;;;4.50;99.90;;;3.60;100.00;100987.66;4221602;28;20058;-79
2022/11/19 04:31:41;;;;;;;7.32;3.10;;;4.50;99.90;;;3.54;100.00;100981.09;4221700;28;20025;-79
2022/11/19 04:33:42;;;;;;;6.57;2.95;;;4.50;99.90;;;3.53;100.00;100983.78;4254205;27;20098;-78
2022/11/19 04:35:44;;;;;;;11.50;3.08;;;4.50;99.90;;;3.49;100.00;100993.63;4221659;28;20026;-78
2022/11/19 04:37:45;;;;;;;9.27;3.30;;;4.50;99.90;;;3.48;100.00;100994.53;4254241;27;20023;-79
2022/11/19 04:39:46;;;;;;;5.22;2.63;;;4.50;99.90;;;3.49;100.00;101000.59;4220316;28;20013;-79
2022/11/19 04:41:47;;;;;;;5.72;3.15;;;4.50;99.90;;;3.45;100.00;100997.34;4254381;27;20069;-79
2022/11/19 04:43:48;;;;;;;10.90;3.10;;;4.40;99.90;;;3.53;100.00;101002.88;4220238;28;20511;-79
2022/11/19 04:45:49;;;;;;;5.82;2.60;;;4.50;99.90;;;3.50;100.00;100984.81;4221341;28;20027;-78
2022/11/19 04:47:49;;;;;;;5.63;2.30;;;4.50;99.90;;;3.50;100.00;100989.22;4254074;27;20027;-79
2022/11/19 04:49:50;;;;;;;15.05;3.53;;;4.50;99.90;;;3.55;100.00;101001.03;4220283;28;20065;-79
2022/11/19 04:51:51;;;;;;;7.68;2.90;;;4.50;99.90;;;3.49;100.00;100995.38;4221244;28;20028;-79
2022/11/19 04:53:54;;;;;;;8.07;2.90;;;4.50;99.90;;;3.58;100.00;100999.97;4221194;28;20165;-79
2022/11/19 04:55:54;;;;;;;11.52;2.88;;;4.50;99.90;;;3.55;100.00;101005.41;4221411;28;20063;-79
2022/11/19 04:57:55;;;;;;;5.97;2.83;;;4.40;99.90;;;3.51;100.00;101007.38;4254061;27;20023;-79
2022/11/19 04:59:56;;;;;;;8.73;2.95;;;4.40;99.90;;;3.47;100.00;100999.84;4221216;28;20028;-79
2022/11/19 05:01:57;;;;;;;6.60;2.45;;;4.40;99.90;;;3.43;100.00;100993.19;4253737;27;20103;-79
2022/11/19 05:03:58;;;;;;;7.65;2.88;;;4.40;99.90;;;3.41;100.00;101003.72;4221052;28;20030;-79
2022/11/19 05:05:59;;;;;;;8.32;3.25;;;4.40;99.90;;;3.38;100.00;101003.06;4221427;28;20024;-79
2022/11/19 05:08:00;;;;;;;9.77;3.88;;;4.40;99.90;;;3.44;100.00;101013.09;4236957;28;20031;-79
2022/11/19 05:10:01;;;;;;;6.82;3.13;;;4.30;99.90;;;3.39;100.00;101012.56;4219797;28;20036;-79
2022/11/19 05:12:02;;;;;;;6.13;2.83;;;4.30;99.90;;;3.39;100.00;101013.41;4220998;28;20495;-79
2022/11/19 05:14:03;;;;;;;7.82;2.80;;;4.30;99.90;;;3.40;100.00;101015.09;4221129;28;20036;-79
2022/11/19 05:16:04;;;;;;;9.10;3.00;;;4.30;99.90;;;3.41;100.00;101016.75;4254116;27;20041;-79
2022/11/19 05:18:05;;;;;;;8.43;2.92;;;4.30;99.90;;;3.42;100.00;101015.81;4219782;28;20475;-79
2022/11/19 05:20:08;;;;;;;5.80;2.30;;;4.30;99.90;;;3.38;100.00;101011.75;4220702;28;20048;-79
2022/11/19 05:22:09;;;;;;;6.03;2.85;;;4.30;99.90;;;3.33;100.00;101009.47;4253818;27;20023;-79
2022/11/19 05:24:09;;;;;;;8.70;2.92;;;4.30;99.90;;;3.32;100.00;101010.38;4220967;28;20039;-79
2022/11/19 05:26:10;;;;;;;5.88;2.67;;;4.30;99.90;;;3.39;100.00;101021.25;4253555;27;20019;-79
2022/11/19 05:28:11;;;;;;;6.95;2.83;;;4.30;99.90;;;3.38;100.00;101018.72;4220694;28;20039;-79
2022/11/19 05:30:13;;;;;;;4.38;3.22;;;4.30;99.90;;;3.33;100.00;101019.03;4252973;27;20035;-79
2022/11/19 05:32:13;;;;;;;7.82;3.08;;;4.30;99.90;;;3.32;100.00;101018.19;4220487;28;20166;-79
2022/11/19 05:34:14;;;;;;;11.90;3.45;;;4.30;99.90;;;3.38;100.00;101018.72;4220642;28;20448;-79
2022/11/19 05:36:15;;;;;;;8.80;2.90;;;4.30;99.90;;;3.32;100.00;101015.59;4253441;27;20114;-79
2022/11/19 05:38:16;;;;;;;6.13;2.83;;;4.30;99.90;;;3.31;100.00;101016.56;4219433;28;20012;-79
2022/11/19 05:40:18;;;;;;;7.30;3.38;;;4.30;99.90;;;3.35;100.00;101030.19;4236218;28;20027;-79
2022/11/19 05:42:19;;;;;;;5.70;2.75;;;4.20;99.90;;;3.27;100.00;101020.28;4220567;28;20024;-79
2022/11/19 05:44:19;;;;;;;6.95;3.20;;;4.20;99.90;;;3.26;100.00;101026.44;4220479;28;20411;-79
2022/11/19 05:46:20;;;;;;;6.30;2.40;;;4.20;99.90;;;3.27;100.00;101033.34;4253321;27;20030;-79
2022/11/19 05:48:21;;;;;;;10.85;3.10;;;4.20;99.90;;;3.25;100.00;101023.94;4219262;28;20062;-79
2022/11/19 05:50:22;;;;;;;6.53;2.95;;;4.20;99.90;;;3.22;100.00;101034.56;4219194;28;20036;-79
2022/11/19 05:52:23;;;;;;;5.53;2.55;;;4.20;99.90;;;3.23;100.00;101041.44;4235820;28;20574;-79
2022/11/19 05:54:24;;;;;;;5.03;2.67;;;4.20;99.90;;;3.25;100.00;101047.41;4219369;28;20028;-79
2022/11/19 05:56:24;;;;;;;8.18;2.30;;;4.20;99.90;;;3.18;100.00;101041.75;4220383;28;20410;-79
2022/11/19 05:58:25;;;;;;;7.28;2.83;;;4.20;99.90;;;3.15;100.00;101048.94;4253054;27;20015;-79
2022/11/19 06:00:26;;;;;;;8.60;3.28;;;4.10;99.90;;;3.17;100.00;101047.91;4202148;28;20029;-79
2022/11/19 06:02:27;;;;;;;6.10;2.85;;;4.10;99.90;;;3.12;100.00;101047.38;4205653;28;20050;-79
2022/11/19 06:04:28;;;;;;;8.02;2.95;;;4.10;99.90;;;3.11;100.00;101058.72;4219089;28;20035;-79
2022/11/19 06:06:28;;;;;;;5.55;2.63;;;4.10;99.90;;;3.16;100.00;101058.44;4252992;27;20106;-79
2022/11/19 06:08:29;;;;;;;7.15;2.72;;;4.10;99.90;;;3.16;100.00;101061.88;4220075;28;20020;-79
2022/11/19 06:10:30;;;;;;;5.25;2.80;;;4.10;99.90;;;3.13;100.00;101053.44;4220271;28;20039;-79
2022/11/19 06:12:31;;;;;;;6.00;3.13;;;4.10;99.90;;;3.15;100.00;101062.81;4220101;28;20040;-79
2022/11/19 06:14:32;;;;;;;6.80;3.03;;;4.10;99.90;;;3.26;100.00;101082.94;4252915;27;20026;-79
2022/11/19 06:16:33;;;;;;;6.53;2.88;;;4.20;99.90;;;3.20;100.00;101084.19;4220040;28;20032;-79
2022/11/19 06:18:34;;;;;;;8.60;2.58;;;4.20;99.90;;;3.20;100.00;101084.19;4251578;27;20034;-79
2022/11/19 06:20:35;;;;;;;7.25;2.80;;;4.20;99.90;;;3.22;100.00;101076.28;4219793;28;20499;-79
2022/11/19 06:22:37;;;;;;;9.52;2.63;;;4.20;99.90;;;3.24;100.00;101079.63;4252685;27;20091;-79
2022/11/19 06:24:37;;;;;;;8.48;3.58;;;4.20;99.90;;;3.23;100.00;101076.16;4252568;27;20030;-79
2022/11/19 06:26:39;;;;;;;5.47;2.80;;;4.20;99.90;;;3.27;100.00;101082.88;4252593;27;20495;-79
2022/11/19 06:28:40;;;;;;;6.40;2.92;;;4.30;99.90;;;3.26;100.00;101070.75;4252944;27;20041;-79
2022/11/19 06:30:41;;;;;;;11.38;2.95;;;4.30;99.90;;;3.27;100.00;101068.97;4219658;28;20036;-79
2022/11/19 06:32:42;;;;;;;5.38;2.40;;;4.30;99.90;;;3.24;100.00;101075.25;4219414;28;20502;-79
2022/11/19 06:34:43;;;;;;;8.88;3.22;;;4.20;99.90;;;3.25;100.00;101087.34;4235198;28;20027;-79
2022/11/19 06:36:44;;;;;;;6.65;2.30;;;4.20;99.90;;;3.24;100.00;101088.28;4252613;27;20104;-79
2022/11/19 06:38:45;;;;;;;4.05;2.35;;;4.20;99.90;;;3.26;100.00;101086.41;4218468;28;20024;-79
2022/11/19 06:40:46;;;;;;;6.13;2.80;;;4.20;99.90;;;3.22;100.00;101087.56;4219007;28;20017;-79
2022/11/19 06:42:47;;;;;;;6.28;2.45;;;4.20;99.90;;;3.27;100.00;101102.88;4219467;28;20032;-79
2022/11/19 06:44:48;;;;;;;6.85;2.92;;;4.20;99.90;;;3.28;100.00;101091.53;4219779;28;20031;-79
2022/11/19 06:46:49;;;;;;;8.18;3.28;;;4.20;99.90;;;3.28;100.00;101097.56;4235035;28;20410;-79
2022/11/19 06:48:49;;;;;;;8.15;2.60;;;4.20;99.90;;;3.27;100.00;101089.84;4219267;28;20036;-79
2022/11/19 06:50:50;;;;;;;4.80;1.98;;;4.20;99.90;;;3.24;100.00;101090.88;4252031;27;20031;-79
2022/11/19 06:52:51;;;;;;;4.40;1.73;;;4.20;99.90;;;3.22;100.00;101103.19;4218002;28;20053;-79
2022/11/19 06:54:53;;;;;;;4.50;1.95;;;4.20;99.90;;;3.24;100.00;101106.53;4218175;28;20497;-78
2022/11/19 06:56:53;;;;;;;4.78;2.25;;;4.20;99.90;;;3.21;100.00;101101.50;4219386;28;20444;-79
2022/11/19 06:58:57;;;;;;;8.45;2.85;;;4.20;99.90;;;3.23;100.00;101106.59;4234778;28;20028;-79
2022/11/19 07:00:58;;;;;;;7.32;3.08;;;4.20;99.90;;;3.21;100.00;101098.91;4234902;28;20046;-79
2022/11/19 07:02:59;;;;;;;7.68;2.45;;;4.20;99.90;;;3.28;100.00;101108.00;4234629;28;20036;-79
2022/11/19 07:05:00;;;;;;;8.05;2.67;;;4.20;99.90;;;3.32;100.00;101130.31;4252053;27;20022;-79
2022/11/19 07:07:01;;;;;;;15.10;7.28;;;4.20;99.90;;;3.30;100.00;101126.13;4200980;28;20071;-79
2022/11/19 07:09:02;;;;;;;22.38;14.95;;;4.30;99.90;;;3.31;100.00;101133.03;4218395;28;20032;-79
2022/11/19 07:11:24;;;;;;;30.85;19.38;;;4.30;99.90;;;3.32;100.00;101129.47;4218049;28;20060;-79
2022/11/19 07:13:56;;;;;;;28.27;15.55;;;4.30;99.90;;;3.32;100.00;101139.91;4218963;28;20123;-79
2022/11/19 07:15:45;;;;;;;19.92;10.88;;;4.20;99.90;;;3.34;100.00;101144.06;4219103;28;20106;-79
2022/11/19 07:17:46;;;;;;;16.73;12.00;;;4.30;99.90;;;3.38;100.00;101143.88;4216858;28;20099;-79
2022/11/19 07:19:47;;;;;;;17.60;9.77;;;4.30;99.90;;;3.32;100.00;101132.91;4218652;28;20032;-79
2022/11/19 07:21:48;;;;;;;15.27;8.90;;;4.30;99.90;;;3.33;100.00;101141.59;4251153;27;20095;-79
2022/11/19 07:23:49;;;;;;;25.13;17.13;;;4.30;99.90;;;3.34;100.00;101151.91;4217690;28;20028;-79
2022/11/19 07:25:49;;;;;;;24.50;16.08;;;4.30;99.90;;;3.37;100.00;101155.25;4218843;28;20024;-79
2022/11/19 07:27:50;;;;;;;23.92;16.42;;;4.30;99.90;;;3.38;100.00;101164.72;4200789;28;20074;-79
2022/11/19 07:29:51;;;;;;;28.75;21.75;;;4.30;99.90;;;3.39;100.00;101166.41;4217808;28;20024;-79
2022/11/19 07:31:52;;;;;;;31.13;23.10;;;4.30;99.90;;;3.37;100.00;101163.09;4218749;28;20032;-79
2022/11/19 07:33:53;;;;;;;20.90;15.52;;;4.30;99.90;;;3.42;100.00;101155.78;4234332;28;20031;-78
2022/11/19 07:35:54;;;;;;;15.13;10.95;;;4.30;99.90;;;3.41;100.00;101160.16;4218833;28;20028;-78
2022/11/19 07:37:54;;;;;;;11.65;8.68;;;4.40;99.90;;;3.42;100.00;101155.78;4218396;28;20024;-77
2022/11/19 07:39:55;;;;;;;10.55;6.18;;;4.40;99.90;;;3.49;100.00;101162.28;4217696;28;20488;-78
2022/11/19 07:44:16;;;;;;;10.25;4.88;;;4.50;99.90;;;3.59;100.00;101166.78;4218585;28;20039;-78
2022/11/19 07:46:16;;;;;;;6.65;4.72;;;4.50;99.90;;;3.51;100.00;101155.19;4251542;27;20028;-78
2022/11/19 07:48:17;;;;;;;9.00;4.90;;;4.50;99.90;;;3.60;100.00;101170.22;4217159;28;20043;-78
2022/11/19 07:50:18;;;;;;;5.85;4.45;;;4.60;99.90;;;3.59;100.00;101174.59;4218598;28;20028;-78
2022/11/19 07:52:20;;;;;;;5.28;4.15;;;4.60;99.90;;;3.61;100.00;101161.47;4250889;27;20038;-78
2022/11/19 07:54:21;;;;;;;10.48;4.70;;;4.60;99.90;;;3.61;100.00;101167.53;4216935;28;20027;-78
2022/11/19 07:56:22;;;;;;;6.95;4.35;;;4.60;99.90;;;3.65;100.00;101170.75;4251355;27;20019;-78
2022/11/19 07:58:23;;;;;;;7.70;4.75;;;4.60;99.90;;;3.65;100.00;101162.94;4234126;28;20030;-78
2022/11/19 08:00:24;;;;;;;7.93;3.60;;;4.60;99.90;;;3.70;100.00;101169.50;4217179;28;20503;-79
2022/11/19 08:02:25;;;;;;;6.15;3.65;;;4.70;99.90;;;3.74;100.00;101172.75;4251117;27;20031;-79
2022/11/19 08:04:29;;;;;;;7.95;3.83;;;4.70;99.90;;;3.73;100.00;101171.09;4251276;27;20031;-78
2022/11/19 08:06:32;;;;;;;9.50;4.30;;;4.70;99.90;;;3.74;100.00;101170.16;4234507;28;20382;-78
2022/11/19 08:08:33;;;;;;;8.05;4.03;;;4.70;99.90;;;3.81;100.00;101182.69;4216891;28;20093;-78
2022/11/19 08:10:35;;;;;;;7.00;4.30;;;4.70;99.90;;;3.82;100.00;101188.75;4204771;28;20020;-79
2022/11/19 08:12:36;;;;;;;8.07;4.40;;;4.70;99.90;;;3.82;100.00;101193.97;4233917;28;20586;-78
2022/11/19 08:14:37;;;;;;;6.65;4.90;;;4.70;99.90;;;3.81;100.00;101185.31;4251084;28;20019;-79
2022/11/19 08:18:57;;;;;;;7.60;3.47;;;4.80;99.90;;;3.89;100.00;101203.88;4216440;28;20058;-79
2022/11/19 08:21:06;;;;;;;10.88;4.85;;;4.80;99.90;;;4.05;100.00;101198.47;4217773;28;20052;-79
2022/11/19 08:23:07;;;;;;;7.38;4.47;;;4.90;99.90;;;4.08;100.00;101200.91;4216627;28;20395;-79
2022/11/19 08:25:08;;;;;;;8.25;5.28;;;5.00;99.90;;;4.17;100.00;101202.03;4250624;28;20028;-79
2022/11/19 08:27:09;;;;;;;7.68;4.90;;;5.10;99.90;;;4.23;100.00;101205.06;4217879;28;20031;-79
2022/11/19 08:29:13;;;;;;;6.05;3.95;;;5.10;99.90;;;4.27;100.00;101203.09;4212359;28;20036;-79
2022/11/19 08:31:14;;;;;;;5.65;4.47;;;5.20;99.90;;;4.31;100.00;101199.31;4216690;28;20026;-77
2022/11/19 08:33:15;;;;;;;7.00;3.65;;;5.30;99.90;;;4.33;100.00;101197.47;4218305;28;20036;-79
2022/11/19 08:35:16;;;;;;;6.22;3.90;;;5.30;99.90;;;4.36;100.00;101210.31;4251189;28;20109;-79
2022/11/19 08:37:17;;;;;;;6.60;4.20;;;5.30;99.90;;;4.37;100.00;101204.13;4217188;28;20024;-78
2022/11/19 08:39:17;;;;;;;8.60;4.13;;;5.40;99.90;;;4.39;100.00;101208.28;4250747;28;20023;-79
2022/11/19 08:43:37;;;;;;;5.65;4.22;;;5.40;99.90;;;4.50;100.00;101218.03;4210876;28;20085;-78
2022/11/19 08:45:39;;;;;;;13.20;5.18;;;5.50;99.90;;;4.57;100.00;101226.28;4218237;28;20415;-78
2022/11/19 08:47:40;;;;;;;8.20;4.40;;;5.50;99.90;;;4.70;100.00;101227.94;4217868;28;20024;-80
2022/11/19 08:49:41;;;;;;;7.10;4.57;;;5.60;99.90;;;4.77;100.00;101223.13;4250922;28;20031;-79
2022/11/19 08:51:41;;;;;;;4.03;2.33;;;5.70;99.90;;;4.88;100.00;101218.81;4216905;28;20027;-80
2022/11/19 08:53:42;;;;;;;8.95;2.55;;;5.80;99.90;;;4.91;100.00;101225.59;4250769;28;20023;-79
2022/11/19 08:55:49;;;;;;;5.60;2.40;;;5.80;99.90;;;5.06;100.00;101214.03;4216853;28;20032;-79
2022/11/19 08:57:50;;;;;;;8.13;2.72;;;5.90;99.90;;;5.07;100.00;101215.72;4249452;28;20395;-79
2022/11/19 08:59:51;;;;;;;4.47;2.33;;;6.00;99.90;;;5.07;100.00;101213.13;4216236;28;20055;-80
2022/11/19 09:01:51;;;;;;;8.25;3.03;;;6.00;99.90;;;5.10;100.00;101220.75;4217393;28;20031;-79
2022/11/19 09:03:52;;;;;;;7.63;2.35;;;6.10;99.90;;;5.18;100.00;101220.19;4216732;28;20024;-79